sensor_id;sensor_type;location;lat;lon;timestamp;P1;durP1;ratioP1;P2;durP2;ratioP2
35042;SDS011;21230;51.170;17.024;2023-04-24T00:00:28;25.58;;;16.88;;
35042;SDS011;21230;51.170;17.024;2023-04-24T00:02:54;23.05;;;16.00;;
35042;SDS011;21230;51.170;17.024;2023-04-24T00:05:22;25.15;;;15.32;;
35042;SDS011;21230;51.170;17.024;2023-04-24T00:07:48;22.98;;;16.23;;
35042;SDS011;21230;51.170;17.024;2023-04-24T00:12:43;22.98;;;15.88;;
35042;SDS011;21230;51.170;17.024;2023-04-24T00:15:09;24.80;;;16.30;;
35042;SDS011;21230;51.170;17.024;2023-04-24T00:17:36;27.42;;;17.05;;
35042;SDS011;21230;51.170;17.024;2023-04-24T00:20:02;24.83;;;16.38;;
35042;SDS011;21230;51.170;17.024;2023-04-24T00:22:30;27.48;;;17.30;;
35042;SDS011;21230;51.170;17.024;2023-04-24T00:24:57;20.50;;;16.98;;
35042;SDS011;21230;51.170;17.024;2023-04-24T00:27:22;27.08;;;16.85;;
35042;SDS011;21230;51.170;17.024;2023-04-24T00:29:49;24.95;;;17.90;;
35042;SDS011;21230;51.170;17.024;2023-04-24T00:32:14;23.10;;;15.35;;
35042;SDS011;21230;51.170;17.024;2023-04-24T00:34:41;32.17;;;18.42;;
35042;SDS011;21230;51.170;17.024;2023-04-24T00:37:07;26.98;;;16.70;;
35042;SDS011;21230;51.170;17.024;2023-04-24T00:39:33;24.90;;;17.17;;
35042;SDS011;21230;51.170;17.024;2023-04-24T00:41:59;33.28;;;17.95;;
35042;SDS011;21230;51.170;17.024;2023-04-24T00:44:26;24.55;;;17.85;;
35042;SDS011;21230;51.170;17.024;2023-04-24T00:46:52;25.65;;;18.13;;
35042;SDS011;21230;51.170;17.024;2023-04-24T00:49:20;28.25;;;19.13;;
35042;SDS011;21230;51.170;17.024;2023-04-24T00:51:47;29.15;;;18.88;;
35042;SDS011;21230;51.170;17.024;2023-04-24T00:54:14;25.45;;;18.85;;
35042;SDS011;21230;51.170;17.024;2023-04-24T00:56:41;24.98;;;17.02;;
35042;SDS011;21230;51.170;17.024;2023-04-24T00:59:09;30.27;;;18.35;;
35042;SDS011;21230;51.170;17.024;2023-04-24T01:01:35;28.27;;;18.38;;
35042;SDS011;21230;51.170;17.024;2023-04-24T01:04:01;26.60;;;18.10;;
35042;SDS011;21230;51.170;17.024;2023-04-24T01:06:28;24.33;;;17.05;;
35042;SDS011;21230;51.170;17.024;2023-04-24T01:08:56;29.83;;;19.30;;
35042;SDS011;21230;51.170;17.024;2023-04-24T01:13:51;24.90;;;17.85;;
35042;SDS011;21230;51.170;17.024;2023-04-24T01:16:18;24.73;;;17.40;;
35042;SDS011;21230;51.170;17.024;2023-04-24T01:18:45;27.48;;;19.85;;
35042;SDS011;21230;51.170;17.024;2023-04-24T01:21:13;30.67;;;20.35;;
35042;SDS011;21230;51.170;17.024;2023-04-24T01:23:41;32.95;;;22.00;;
35042;SDS011;21230;51.170;17.024;2023-04-24T01:26:08;27.08;;;21.38;;
35042;SDS011;21230;51.170;17.024;2023-04-24T01:28:34;27.35;;;21.30;;
35042;SDS011;21230;51.170;17.024;2023-04-24T01:31:00;28.17;;;20.88;;
35042;SDS011;21230;51.170;17.024;2023-04-24T01:33:26;27.45;;;20.27;;
35042;SDS011;21230;51.170;17.024;2023-04-24T01:35:52;27.33;;;20.48;;
35042;SDS011;21230;51.170;17.024;2023-04-24T01:38:18;35.05;;;20.30;;
35042;SDS011;21230;51.170;17.024;2023-04-24T01:40:44;29.02;;;21.38;;
35042;SDS011;21230;51.170;17.024;2023-04-24T01:43:11;29.42;;;20.85;;
35042;SDS011;21230;51.170;17.024;2023-04-24T01:45:38;26.27;;;19.67;;
35042;SDS011;21230;51.170;17.024;2023-04-24T01:48:03;27.13;;;19.67;;
35042;SDS011;21230;51.170;17.024;2023-04-24T01:50:30;29.02;;;21.17;;
35042;SDS011;21230;51.170;17.024;2023-04-24T01:52:56;27.48;;;21.08;;
35042;SDS011;21230;51.170;17.024;2023-04-24T01:55:22;34.65;;;20.70;;
35042;SDS011;21230;51.170;17.024;2023-04-24T01:57:48;25.95;;;19.67;;
35042;SDS011;21230;51.170;17.024;2023-04-24T02:00:19;28.65;;;19.20;;
35042;SDS011;21230;51.170;17.024;2023-04-24T02:02:45;24.90;;;19.00;;
35042;SDS011;21230;51.170;17.024;2023-04-24T02:05:11;26.67;;;18.58;;
35042;SDS011;21230;51.170;17.024;2023-04-24T02:07:37;30.67;;;19.73;;
35042;SDS011;21230;51.170;17.024;2023-04-24T02:10:03;28.38;;;18.90;;
35042;SDS011;21230;51.170;17.024;2023-04-24T02:12:29;26.52;;;19.73;;
35042;SDS011;21230;51.170;17.024;2023-04-24T02:14:55;27.30;;;19.15;;
35042;SDS011;21230;51.170;17.024;2023-04-24T02:17:21;26.23;;;18.05;;
35042;SDS011;21230;51.170;17.024;2023-04-24T02:19:47;26.10;;;18.95;;
35042;SDS011;21230;51.170;17.024;2023-04-24T02:22:13;27.20;;;18.88;;
35042;SDS011;21230;51.170;17.024;2023-04-24T02:24:39;27.48;;;18.60;;
35042;SDS011;21230;51.170;17.024;2023-04-24T02:27:05;27.20;;;16.85;;
35042;SDS011;21230;51.170;17.024;2023-04-24T02:29:31;24.17;;;18.77;;
35042;SDS011;21230;51.170;17.024;2023-04-24T02:31:57;24.52;;;17.00;;
35042;SDS011;21230;51.170;17.024;2023-04-24T02:34:23;29.17;;;19.83;;
35042;SDS011;21230;51.170;17.024;2023-04-24T02:36:49;30.60;;;19.15;;
35042;SDS011;21230;51.170;17.024;2023-04-24T02:39:15;28.08;;;17.58;;
35042;SDS011;21230;51.170;17.024;2023-04-24T02:41:42;28.38;;;18.58;;
35042;SDS011;21230;51.170;17.024;2023-04-24T02:44:08;25.38;;;17.85;;
35042;SDS011;21230;51.170;17.024;2023-04-24T02:46:34;30.00;;;18.73;;
35042;SDS011;21230;51.170;17.024;2023-04-24T02:49:00;31.63;;;18.38;;
35042;SDS011;21230;51.170;17.024;2023-04-24T02:51:26;28.70;;;17.65;;
35042;SDS011;21230;51.170;17.024;2023-04-24T02:53:52;22.23;;;16.15;;
35042;SDS011;21230;51.170;17.024;2023-04-24T02:56:18;25.08;;;17.65;;
35042;SDS011;21230;51.170;17.024;2023-04-24T02:58:44;25.58;;;17.67;;
35042;SDS011;21230;51.170;17.024;2023-04-24T03:01:11;27.23;;;17.13;;
35042;SDS011;21230;51.170;17.024;2023-04-24T03:03:37;24.48;;;17.88;;
35042;SDS011;21230;51.170;17.024;2023-04-24T03:06:04;27.42;;;18.50;;
35042;SDS011;21230;51.170;17.024;2023-04-24T03:08:33;27.00;;;17.58;;
35042;SDS011;21230;51.170;17.024;2023-04-24T03:10:59;25.38;;;17.17;;
35042;SDS011;21230;51.170;17.024;2023-04-24T03:13:25;30.48;;;19.85;;
35042;SDS011;21230;51.170;17.024;2023-04-24T03:15:51;27.00;;;18.50;;
35042;SDS011;21230;51.170;17.024;2023-04-24T03:18:18;24.70;;;18.10;;
35042;SDS011;21230;51.170;17.024;2023-04-24T03:20:45;26.65;;;17.60;;
35042;SDS011;21230;51.170;17.024;2023-04-24T03:23:36;27.40;;;19.10;;
35042;SDS011;21230;51.170;17.024;2023-04-24T03:26:05;24.55;;;17.35;;
35042;SDS011;21230;51.170;17.024;2023-04-24T03:28:31;28.83;;;17.63;;
35042;SDS011;21230;51.170;17.024;2023-04-24T03:30:57;25.40;;;20.30;;
35042;SDS011;21230;51.170;17.024;2023-04-24T03:33:22;23.80;;;17.60;;
35042;SDS011;21230;51.170;17.024;2023-04-24T03:35:52;25.15;;;17.60;;
35042;SDS011;21230;51.170;17.024;2023-04-24T03:38:18;27.17;;;19.77;;
35042;SDS011;21230;51.170;17.024;2023-04-24T03:40:43;27.10;;;18.33;;
35042;SDS011;21230;51.170;17.024;2023-04-24T03:43:09;26.70;;;19.42;;
35042;SDS011;21230;51.170;17.024;2023-04-24T03:45:35;30.85;;;20.27;;
35042;SDS011;21230;51.170;17.024;2023-04-24T03:48:01;28.23;;;18.73;;
35042;SDS011;21230;51.170;17.024;2023-04-24T03:50:27;25.67;;;19.63;;
35042;SDS011;21230;51.170;17.024;2023-04-24T03:52:54;23.33;;;18.95;;
35042;SDS011;21230;51.170;17.024;2023-04-24T03:55:23;25.38;;;20.27;;
35042;SDS011;21230;51.170;17.024;2023-04-24T03:57:56;28.08;;;18.67;;
35042;SDS011;21230;51.170;17.024;2023-04-24T04:00:22;31.40;;;20.13;;
35042;SDS011;21230;51.170;17.024;2023-04-24T04:02:48;26.00;;;19.08;;
35042;SDS011;21230;51.170;17.024;2023-04-24T04:05:16;27.63;;;19.55;;
35042;SDS011;21230;51.170;17.024;2023-04-24T04:07:42;28.85;;;18.08;;
35042;SDS011;21230;51.170;17.024;2023-04-24T04:10:11;27.00;;;18.27;;
35042;SDS011;21230;51.170;17.024;2023-04-24T04:12:37;25.17;;;19.50;;
35042;SDS011;21230;51.170;17.024;2023-04-24T04:15:04;26.17;;;18.55;;
35042;SDS011;21230;51.170;17.024;2023-04-24T04:17:31;25.30;;;18.48;;
35042;SDS011;21230;51.170;17.024;2023-04-24T04:19:57;26.67;;;19.25;;
35042;SDS011;21230;51.170;17.024;2023-04-24T04:22:23;27.90;;;20.00;;
35042;SDS011;21230;51.170;17.024;2023-04-24T04:24:49;30.15;;;20.83;;
35042;SDS011;21230;51.170;17.024;2023-04-24T04:27:16;27.88;;;19.40;;
35042;SDS011;21230;51.170;17.024;2023-04-24T04:29:43;29.95;;;20.92;;
35042;SDS011;21230;51.170;17.024;2023-04-24T04:32:09;26.80;;;21.92;;
35042;SDS011;21230;51.170;17.024;2023-04-24T04:34:41;30.67;;;21.90;;
35042;SDS011;21230;51.170;17.024;2023-04-24T04:37:07;32.90;;;23.63;;
35042;SDS011;21230;51.170;17.024;2023-04-24T04:39:35;33.75;;;22.52;;
35042;SDS011;21230;51.170;17.024;2023-04-24T04:42:01;31.45;;;22.33;;
35042;SDS011;21230;51.170;17.024;2023-04-24T04:44:27;25.25;;;20.10;;
35042;SDS011;21230;51.170;17.024;2023-04-24T04:46:53;32.30;;;22.45;;
35042;SDS011;21230;51.170;17.024;2023-04-24T04:51:53;27.02;;;20.67;;
35042;SDS011;21230;51.170;17.024;2023-04-24T04:54:19;26.73;;;21.10;;
35042;SDS011;21230;51.170;17.024;2023-04-24T04:56:45;32.58;;;23.08;;
35042;SDS011;21230;51.170;17.024;2023-04-24T04:59:11;38.13;;;22.52;;
35042;SDS011;21230;51.170;17.024;2023-04-24T05:01:37;50.65;;;23.58;;
35042;SDS011;21230;51.170;17.024;2023-04-24T05:04:06;45.08;;;22.58;;
35042;SDS011;21230;51.170;17.024;2023-04-24T05:06:32;37.60;;;19.00;;
35042;SDS011;21230;51.170;17.024;2023-04-24T05:08:57;29.75;;;18.92;;
35042;SDS011;21230;51.170;17.024;2023-04-24T05:11:23;27.30;;;18.92;;
35042;SDS011;21230;51.170;17.024;2023-04-24T05:13:49;25.80;;;18.20;;
35042;SDS011;21230;51.170;17.024;2023-04-24T05:16:15;25.10;;;19.13;;
35042;SDS011;21230;51.170;17.024;2023-04-24T05:18:41;24.45;;;18.63;;
35042;SDS011;21230;51.170;17.024;2023-04-24T05:21:07;25.17;;;18.75;;
35042;SDS011;21230;51.170;17.024;2023-04-24T05:23:32;23.10;;;18.38;;
35042;SDS011;21230;51.170;17.024;2023-04-24T05:25:58;23.95;;;15.73;;
35042;SDS011;21230;51.170;17.024;2023-04-24T05:28:24;24.40;;;16.45;;
35042;SDS011;21230;51.170;17.024;2023-04-24T05:30:53;20.58;;;14.73;;
35042;SDS011;21230;51.170;17.024;2023-04-24T05:33:21;20.15;;;15.10;;
35042;SDS011;21230;51.170;17.024;2023-04-24T05:35:47;22.30;;;17.40;;
35042;SDS011;21230;51.170;17.024;2023-04-24T05:38:14;29.50;;;16.23;;
35042;SDS011;21230;51.170;17.024;2023-04-24T05:40:42;29.33;;;17.10;;
35042;SDS011;21230;51.170;17.024;2023-04-24T05:43:08;26.27;;;17.35;;
35042;SDS011;21230;51.170;17.024;2023-04-24T05:45:34;20.67;;;15.55;;
35042;SDS011;21230;51.170;17.024;2023-04-24T05:48:01;20.23;;;15.52;;
35042;SDS011;21230;51.170;17.024;2023-04-24T05:50:27;18.08;;;14.55;;
35042;SDS011;21230;51.170;17.024;2023-04-24T05:52:53;23.23;;;14.13;;
35042;SDS011;21230;51.170;17.024;2023-04-24T05:55:19;20.35;;;14.80;;
35042;SDS011;21230;51.170;17.024;2023-04-24T05:57:45;23.88;;;14.27;;
35042;SDS011;21230;51.170;17.024;2023-04-24T06:00:12;16.70;;;12.27;;
35042;SDS011;21230;51.170;17.024;2023-04-24T06:02:38;18.98;;;12.93;;
35042;SDS011;21230;51.170;17.024;2023-04-24T06:05:04;22.20;;;13.68;;
35042;SDS011;21230;51.170;17.024;2023-04-24T06:07:31;24.05;;;12.40;;
35042;SDS011;21230;51.170;17.024;2023-04-24T06:09:56;18.55;;;12.70;;
35042;SDS011;21230;51.170;17.024;2023-04-24T06:12:22;15.73;;;11.40;;
35042;SDS011;21230;51.170;17.024;2023-04-24T06:14:48;19.40;;;11.07;;
35042;SDS011;21230;51.170;17.024;2023-04-24T06:17:14;20.20;;;11.57;;
35042;SDS011;21230;51.170;17.024;2023-04-24T06:19:40;15.57;;;10.75;;
35042;SDS011;21230;51.170;17.024;2023-04-24T06:22:06;13.18;;;9.57;;
35042;SDS011;21230;51.170;17.024;2023-04-24T06:24:33;14.75;;;9.43;;
35042;SDS011;21230;51.170;17.024;2023-04-24T06:26:59;12.85;;;8.77;;
35042;SDS011;21230;51.170;17.024;2023-04-24T06:29:26;18.80;;;10.27;;
35042;SDS011;21230;51.170;17.024;2023-04-24T06:31:52;11.40;;;8.88;;
35042;SDS011;21230;51.170;17.024;2023-04-24T06:34:18;12.57;;;8.52;;
35042;SDS011;21230;51.170;17.024;2023-04-24T06:36:46;12.55;;;8.55;;
35042;SDS011;21230;51.170;17.024;2023-04-24T06:39:12;9.77;;;8.05;;
35042;SDS011;21230;51.170;17.024;2023-04-24T06:41:38;10.63;;;8.18;;
35042;SDS011;21230;51.170;17.024;2023-04-24T06:44:05;12.00;;;8.77;;
35042;SDS011;21230;51.170;17.024;2023-04-24T06:46:31;11.73;;;8.85;;
35042;SDS011;21230;51.170;17.024;2023-04-24T06:48:56;14.35;;;7.97;;
35042;SDS011;21230;51.170;17.024;2023-04-24T06:51:23;10.50;;;7.95;;
35042;SDS011;21230;51.170;17.024;2023-04-24T06:53:49;13.43;;;7.70;;
35042;SDS011;21230;51.170;17.024;2023-04-24T06:56:16;10.93;;;8.68;;
35042;SDS011;21230;51.170;17.024;2023-04-24T06:58:42;15.32;;;8.73;;
35042;SDS011;21230;51.170;17.024;2023-04-24T07:01:08;15.73;;;9.65;;
35042;SDS011;21230;51.170;17.024;2023-04-24T07:03:35;12.65;;;9.27;;
35042;SDS011;21230;51.170;17.024;2023-04-24T07:06:01;14.02;;;8.73;;
35042;SDS011;21230;51.170;17.024;2023-04-24T07:08:29;14.65;;;9.18;;
35042;SDS011;21230;51.170;17.024;2023-04-24T07:10:58;16.35;;;10.25;;
35042;SDS011;21230;51.170;17.024;2023-04-24T07:13:25;15.90;;;9.98;;
35042;SDS011;21230;51.170;17.024;2023-04-24T07:16:01;17.45;;;9.85;;
35042;SDS011;21230;51.170;17.024;2023-04-24T07:18:27;19.40;;;8.98;;
35042;SDS011;21230;51.170;17.024;2023-04-24T07:20:53;18.33;;;10.52;;
35042;SDS011;21230;51.170;17.024;2023-04-24T07:23:19;18.15;;;10.25;;
35042;SDS011;21230;51.170;17.024;2023-04-24T07:25:45;9.30;;;8.25;;
35042;SDS011;21230;51.170;17.024;2023-04-24T07:28:11;12.75;;;8.85;;
35042;SDS011;21230;51.170;17.024;2023-04-24T07:30:38;10.30;;;8.57;;
35042;SDS011;21230;51.170;17.024;2023-04-24T07:33:04;10.93;;;8.75;;
35042;SDS011;21230;51.170;17.024;2023-04-24T07:35:38;14.57;;;8.90;;
35042;SDS011;21230;51.170;17.024;2023-04-24T07:38:04;9.50;;;8.13;;
35042;SDS011;21230;51.170;17.024;2023-04-24T07:40:30;11.90;;;8.25;;
35042;SDS011;21230;51.170;17.024;2023-04-24T07:42:59;10.20;;;7.40;;
35042;SDS011;21230;51.170;17.024;2023-04-24T07:45:27;9.38;;;7.00;;
35042;SDS011;21230;51.170;17.024;2023-04-24T07:47:53;10.95;;;6.78;;
35042;SDS011;21230;51.170;17.024;2023-04-24T07:50:28;10.75;;;7.15;;
35042;SDS011;21230;51.170;17.024;2023-04-24T07:52:59;15.52;;;8.27;;
35042;SDS011;21230;51.170;17.024;2023-04-24T07:55:25;17.05;;;7.53;;
35042;SDS011;21230;51.170;17.024;2023-04-24T07:57:53;9.88;;;7.97;;
35042;SDS011;21230;51.170;17.024;2023-04-24T08:00:19;11.93;;;7.57;;
35042;SDS011;21230;51.170;17.024;2023-04-24T08:02:51;13.57;;;7.57;;
35042;SDS011;21230;51.170;17.024;2023-04-24T08:05:17;11.52;;;8.35;;
35042;SDS011;21230;51.170;17.024;2023-04-24T08:07:43;10.18;;;7.78;;
35042;SDS011;21230;51.170;17.024;2023-04-24T08:10:11;9.57;;;7.72;;
35042;SDS011;21230;51.170;17.024;2023-04-24T08:12:41;11.43;;;6.50;;
35042;SDS011;21230;51.170;17.024;2023-04-24T08:15:07;13.35;;;7.43;;
35042;SDS011;21230;51.170;17.024;2023-04-24T08:17:36;13.25;;;7.55;;
35042;SDS011;21230;51.170;17.024;2023-04-24T08:20:05;9.55;;;6.30;;
35042;SDS011;21230;51.170;17.024;2023-04-24T08:22:38;13.60;;;8.18;;
35042;SDS011;21230;51.170;17.024;2023-04-24T08:25:05;12.35;;;6.80;;
35042;SDS011;21230;51.170;17.024;2023-04-24T08:27:31;17.38;;;7.32;;
35042;SDS011;21230;51.170;17.024;2023-04-24T08:30:03;9.18;;;6.65;;
35042;SDS011;21230;51.170;17.024;2023-04-24T08:32:30;12.43;;;7.28;;
35042;SDS011;21230;51.170;17.024;2023-04-24T08:34:56;9.45;;;6.95;;
35042;SDS011;21230;51.170;17.024;2023-04-24T08:37:23;11.23;;;6.68;;
35042;SDS011;21230;51.170;17.024;2023-04-24T08:39:49;8.80;;;7.07;;
35042;SDS011;21230;51.170;17.024;2023-04-24T08:42:16;7.80;;;6.55;;
35042;SDS011;21230;51.170;17.024;2023-04-24T08:44:43;12.60;;;6.93;;
35042;SDS011;21230;51.170;17.024;2023-04-24T08:47:10;12.18;;;7.22;;
35042;SDS011;21230;51.170;17.024;2023-04-24T08:49:37;13.35;;;6.43;;
35042;SDS011;21230;51.170;17.024;2023-04-24T08:52:08;9.65;;;6.30;;
35042;SDS011;21230;51.170;17.024;2023-04-24T08:54:36;8.82;;;6.90;;
35042;SDS011;21230;51.170;17.024;2023-04-24T08:57:03;10.32;;;7.38;;
35042;SDS011;21230;51.170;17.024;2023-04-24T08:59:29;9.48;;;7.05;;
35042;SDS011;21230;51.170;17.024;2023-04-24T09:02:00;11.73;;;7.07;;
35042;SDS011;21230;51.170;17.024;2023-04-24T09:04:29;9.88;;;5.75;;
35042;SDS011;21230;51.170;17.024;2023-04-24T09:06:57;7.80;;;5.32;;
35042;SDS011;21230;51.170;17.024;2023-04-24T09:09:23;6.72;;;5.45;;
35042;SDS011;21230;51.170;17.024;2023-04-24T09:11:53;8.30;;;5.03;;
35042;SDS011;21230;51.170;17.024;2023-04-24T09:14:20;7.00;;;5.40;;
35042;SDS011;21230;51.170;17.024;2023-04-24T09:16:48;5.78;;;5.13;;
35042;SDS011;21230;51.170;17.024;2023-04-24T09:19:14;5.68;;;5.18;;
35042;SDS011;21230;51.170;17.024;2023-04-24T09:21:45;9.60;;;6.28;;
35042;SDS011;21230;51.170;17.024;2023-04-24T09:24:16;8.07;;;5.10;;
35042;SDS011;21230;51.170;17.024;2023-04-24T09:26:46;9.45;;;5.25;;
35042;SDS011;21230;51.170;17.024;2023-04-24T09:29:17;6.97;;;5.95;;
35042;SDS011;21230;51.170;17.024;2023-04-24T09:31:44;6.32;;;5.70;;
35042;SDS011;21230;51.170;17.024;2023-04-24T09:34:12;8.77;;;6.32;;
35042;SDS011;21230;51.170;17.024;2023-04-24T09:36:47;10.73;;;6.78;;
35042;SDS011;21230;51.170;17.024;2023-04-24T09:39:14;9.88;;;6.93;;
35042;SDS011;21230;51.170;17.024;2023-04-24T09:41:55;10.73;;;6.68;;
35042;SDS011;21230;51.170;17.024;2023-04-24T09:44:28;11.18;;;7.30;;
35042;SDS011;21230;51.170;17.024;2023-04-24T09:46:55;8.43;;;6.55;;
35042;SDS011;21230;51.170;17.024;2023-04-24T09:49:31;11.63;;;6.25;;
35042;SDS011;21230;51.170;17.024;2023-04-24T09:52:08;8.73;;;6.80;;
35042;SDS011;21230;51.170;17.024;2023-04-24T09:54:35;11.02;;;6.88;;
35042;SDS011;21230;51.170;17.024;2023-04-24T09:57:02;10.45;;;6.72;;
35042;SDS011;21230;51.170;17.024;2023-04-24T09:59:28;6.93;;;6.10;;
35042;SDS011;21230;51.170;17.024;2023-04-24T10:01:54;11.20;;;7.82;;
35042;SDS011;21230;51.170;17.024;2023-04-24T10:04:22;10.27;;;7.28;;
35042;SDS011;21230;51.170;17.024;2023-04-24T10:06:50;9.75;;;7.18;;
35042;SDS011;21230;51.170;17.024;2023-04-24T10:09:19;15.38;;;7.93;;
35042;SDS011;21230;51.170;17.024;2023-04-24T10:11:48;10.35;;;7.68;;
35042;SDS011;21230;51.170;17.024;2023-04-24T10:14:16;9.82;;;7.07;;
35042;SDS011;21230;51.170;17.024;2023-04-24T10:16:46;9.40;;;7.47;;
35042;SDS011;21230;51.170;17.024;2023-04-24T10:19:14;14.45;;;7.45;;
35042;SDS011;21230;51.170;17.024;2023-04-24T10:24:15;9.68;;;7.38;;
35042;SDS011;21230;51.170;17.024;2023-04-24T10:26:42;13.38;;;7.03;;
35042;SDS011;21230;51.170;17.024;2023-04-24T10:29:10;10.15;;;7.57;;
35042;SDS011;21230;51.170;17.024;2023-04-24T10:31:40;9.40;;;7.10;;
35042;SDS011;21230;51.170;17.024;2023-04-24T10:34:06;11.52;;;6.95;;
35042;SDS011;21230;51.170;17.024;2023-04-24T10:36:34;8.90;;;6.70;;
35042;SDS011;21230;51.170;17.024;2023-04-24T10:39:06;6.93;;;5.88;;
35042;SDS011;21230;51.170;17.024;2023-04-24T10:41:39;10.85;;;6.55;;
35042;SDS011;21230;51.170;17.024;2023-04-24T10:44:09;7.63;;;6.82;;
35042;SDS011;21230;51.170;17.024;2023-04-24T10:46:42;6.80;;;5.72;;
35042;SDS011;21230;51.170;17.024;2023-04-24T10:49:10;9.73;;;6.88;;
35042;SDS011;21230;51.170;17.024;2023-04-24T10:54:24;7.28;;;5.45;;
35042;SDS011;21230;51.170;17.024;2023-04-24T10:59:48;8.43;;;5.40;;
35042;SDS011;21230;51.170;17.024;2023-04-24T11:02:38;8.63;;;5.80;;
35042;SDS011;21230;51.170;17.024;2023-04-24T11:05:08;5.47;;;4.80;;
35042;SDS011;21230;51.170;17.024;2023-04-24T11:10:44;6.50;;;5.80;;
35042;SDS011;21230;51.170;17.024;2023-04-24T11:13:15;10.20;;;6.40;;
35042;SDS011;21230;51.170;17.024;2023-04-24T11:15:42;8.13;;;6.75;;
35042;SDS011;21230;51.170;17.024;2023-04-24T11:18:14;15.43;;;7.57;;
35042;SDS011;21230;51.170;17.024;2023-04-24T11:20:44;8.02;;;6.25;;
35042;SDS011;21230;51.170;17.024;2023-04-24T11:23:12;10.73;;;6.68;;
35042;SDS011;21230;51.170;17.024;2023-04-24T11:25:38;9.65;;;6.05;;
35042;SDS011;21230;51.170;17.024;2023-04-24T11:28:05;12.77;;;5.63;;
35042;SDS011;21230;51.170;17.024;2023-04-24T11:30:31;6.70;;;5.38;;
35042;SDS011;21230;51.170;17.024;2023-04-24T11:33:02;7.57;;;5.05;;
35042;SDS011;21230;51.170;17.024;2023-04-24T11:35:29;6.47;;;5.28;;
35042;SDS011;21230;51.170;17.024;2023-04-24T11:38:05;11.82;;;5.68;;
35042;SDS011;21230;51.170;17.024;2023-04-24T11:40:38;7.35;;;5.93;;
35042;SDS011;21230;51.170;17.024;2023-04-24T11:43:04;5.50;;;4.78;;
35042;SDS011;21230;51.170;17.024;2023-04-24T11:45:33;6.45;;;5.20;;
35042;SDS011;21230;51.170;17.024;2023-04-24T11:48:00;8.30;;;5.00;;
35042;SDS011;21230;51.170;17.024;2023-04-24T11:50:28;8.10;;;4.88;;
35042;SDS011;21230;51.170;17.024;2023-04-24T11:52:54;8.40;;;5.38;;
35042;SDS011;21230;51.170;17.024;2023-04-24T11:57:53;8.20;;;4.95;;
35042;SDS011;21230;51.170;17.024;2023-04-24T12:03:10;10.18;;;6.57;;
35042;SDS011;21230;51.170;17.024;2023-04-24T12:05:40;7.13;;;5.28;;
35042;SDS011;21230;51.170;17.024;2023-04-24T12:08:07;8.30;;;6.63;;
35042;SDS011;21230;51.170;17.024;2023-04-24T12:10:33;8.00;;;6.25;;
35042;SDS011;21230;51.170;17.024;2023-04-24T12:13:00;8.05;;;5.90;;
35042;SDS011;21230;51.170;17.024;2023-04-24T12:15:26;9.13;;;5.68;;
35042;SDS011;21230;51.170;17.024;2023-04-24T12:17:53;6.82;;;5.32;;
35042;SDS011;21230;51.170;17.024;2023-04-24T12:20:29;6.55;;;5.45;;
35042;SDS011;21230;51.170;17.024;2023-04-24T12:22:57;9.07;;;4.85;;
35042;SDS011;21230;51.170;17.024;2023-04-24T12:25:25;7.75;;;5.50;;
35042;SDS011;21230;51.170;17.024;2023-04-24T12:28:08;8.67;;;5.57;;
35042;SDS011;21230;51.170;17.024;2023-04-24T12:30:40;4.88;;;4.40;;
35042;SDS011;21230;51.170;17.024;2023-04-24T12:33:19;10.57;;;5.82;;
35042;SDS011;21230;51.170;17.024;2023-04-24T12:35:47;10.82;;;5.40;;
35042;SDS011;21230;51.170;17.024;2023-04-24T12:38:21;7.78;;;5.30;;
35042;SDS011;21230;51.170;17.024;2023-04-24T12:41:00;8.77;;;6.05;;
35042;SDS011;21230;51.170;17.024;2023-04-24T12:43:30;8.23;;;5.63;;
35042;SDS011;21230;51.170;17.024;2023-04-24T12:45:57;10.57;;;5.88;;
35042;SDS011;21230;51.170;17.024;2023-04-24T12:48:24;7.38;;;5.28;;
35042;SDS011;21230;51.170;17.024;2023-04-24T12:50:51;6.90;;;6.20;;
35042;SDS011;21230;51.170;17.024;2023-04-24T12:53:17;10.85;;;7.25;;
35042;SDS011;21230;51.170;17.024;2023-04-24T12:55:43;14.98;;;6.88;;
35042;SDS011;21230;51.170;17.024;2023-04-24T12:58:10;9.57;;;7.63;;
35042;SDS011;21230;51.170;17.024;2023-04-24T13:00:36;9.85;;;7.18;;
35042;SDS011;21230;51.170;17.024;2023-04-24T13:03:03;15.77;;;7.72;;
35042;SDS011;21230;51.170;17.024;2023-04-24T13:05:29;6.82;;;4.13;;
35042;SDS011;21230;51.170;17.024;2023-04-24T13:07:55;5.30;;;2.50;;
35042;SDS011;21230;51.170;17.024;2023-04-24T13:10:29;2.90;;;2.13;;
35042;SDS011;21230;51.170;17.024;2023-04-24T13:13:05;4.72;;;1.73;;
35042;SDS011;21230;51.170;17.024;2023-04-24T13:15:33;2.28;;;1.63;;
35042;SDS011;21230;51.170;17.024;2023-04-24T13:18:03;2.58;;;1.70;;
35042;SDS011;21230;51.170;17.024;2023-04-24T13:20:29;3.23;;;2.10;;
35042;SDS011;21230;51.170;17.024;2023-04-24T13:22:55;3.33;;;2.08;;
35042;SDS011;21230;51.170;17.024;2023-04-24T13:25:24;6.18;;;1.80;;
35042;SDS011;21230;51.170;17.024;2023-04-24T13:27:50;4.10;;;1.90;;
35042;SDS011;21230;51.170;17.024;2023-04-24T13:30:16;4.18;;;1.67;;
35042;SDS011;21230;51.170;17.024;2023-04-24T13:32:41;3.42;;;2.30;;
35042;SDS011;21230;51.170;17.024;2023-04-24T13:35:07;2.22;;;1.67;;
35042;SDS011;21230;51.170;17.024;2023-04-24T13:37:33;9.15;;;1.80;;
35042;SDS011;21230;51.170;17.024;2023-04-24T13:40:02;2.83;;;2.20;;
35042;SDS011;21230;51.170;17.024;2023-04-24T13:42:31;5.23;;;1.73;;
35042;SDS011;21230;51.170;17.024;2023-04-24T13:44:57;1.77;;;1.45;;
35042;SDS011;21230;51.170;17.024;2023-04-24T13:47:23;3.40;;;1.58;;
35042;SDS011;21230;51.170;17.024;2023-04-24T13:49:50;3.63;;;2.55;;
35042;SDS011;21230;51.170;17.024;2023-04-24T13:52:18;2.50;;;0.97;;
35042;SDS011;21230;51.170;17.024;2023-04-24T13:54:51;6.65;;;1.50;;
35042;SDS011;21230;51.170;17.024;2023-04-24T13:57:20;3.90;;;1.27;;
35042;SDS011;21230;51.170;17.024;2023-04-24T13:59:46;3.83;;;1.98;;
35042;SDS011;21230;51.170;17.024;2023-04-24T14:02:12;6.05;;;1.95;;
35042;SDS011;21230;51.170;17.024;2023-04-24T14:04:38;2.85;;;1.63;;
35042;SDS011;21230;51.170;17.024;2023-04-24T14:07:05;1.98;;;1.50;;
35042;SDS011;21230;51.170;17.024;2023-04-24T14:09:31;6.15;;;2.05;;
35042;SDS011;21230;51.170;17.024;2023-04-24T14:11:57;5.22;;;2.33;;
35042;SDS011;21230;51.170;17.024;2023-04-24T14:14:25;3.90;;;2.13;;
35042;SDS011;21230;51.170;17.024;2023-04-24T14:16:53;4.53;;;2.03;;
35042;SDS011;21230;51.170;17.024;2023-04-24T14:19:29;2.78;;;1.85;;
35042;SDS011;21230;51.170;17.024;2023-04-24T14:21:58;5.38;;;2.38;;
35042;SDS011;21230;51.170;17.024;2023-04-24T14:24:25;7.68;;;2.90;;
35042;SDS011;21230;51.170;17.024;2023-04-24T14:26:51;6.47;;;2.03;;
35042;SDS011;21230;51.170;17.024;2023-04-24T14:29:17;2.33;;;1.70;;
35042;SDS011;21230;51.170;17.024;2023-04-24T14:31:52;5.40;;;2.10;;
35042;SDS011;21230;51.170;17.024;2023-04-24T14:34:18;4.03;;;1.98;;
35042;SDS011;21230;51.170;17.024;2023-04-24T14:36:44;6.38;;;2.83;;
35042;SDS011;21230;51.170;17.024;2023-04-24T14:39:10;5.93;;;2.65;;
35042;SDS011;21230;51.170;17.024;2023-04-24T14:41:39;3.55;;;2.50;;
35042;SDS011;21230;51.170;17.024;2023-04-24T14:44:05;6.90;;;2.45;;
35042;SDS011;21230;51.170;17.024;2023-04-24T14:46:31;6.05;;;2.90;;